Terminal Aerodrome Forecast
Issued by NWS

Home | Current Version | Previous Version | Text Only | Print | Product List | Glossary On
Versions: 1 2 3 4 5 6 7 8 9 10 11 12 13 14 15
000
FTUS46 KSEW 301207 AAA
TAFOLM
TAF AMD
KOLM 301207Z 3012/3112 00000KT P6SM SKC
      TEMPO 3012/3014 1 1/2SM BR
     FM301900 03007KT P6SM FEW250
     FM310400 VRB03KT P6SM FEW250=

USA.gov is the U.S. government's official web portal to all federal, state and local government web resources and services.